createdAt,value
2023-04-26T00:02:35.096Z,100898.44
2023-04-26T00:07:38.640Z,100899.09
2023-04-26T00:12:40.725Z,100904.34
2023-04-26T00:17:42.953Z,100902.47
2023-04-26T00:22:46.877Z,100911.16
2023-04-26T00:27:49.236Z,100896.88
2023-04-26T00:32:51.713Z,100898.59
2023-04-26T00:37:55.278Z,100903.84
2023-04-26T00:42:58.170Z,100910.75
2023-04-26T00:48:02.196Z,100910.84
2023-04-26T00:53:06.744Z,100910.66
2023-04-26T00:58:09.492Z,100914.91
2023-04-26T01:03:12.199Z,100923.72
2023-04-26T01:08:16.318Z,100921.88
2023-04-26T01:13:18.108Z,100925.19
2023-04-26T01:18:20.270Z,100930.44
2023-04-26T01:23:24.952Z,100940.91
2023-04-26T01:28:27.281Z,100935.59
2023-04-26T01:33:29.811Z,100941.59
2023-04-26T01:38:33.166Z,100937.88
2023-04-26T01:43:35.334Z,100945.63
2023-04-26T01:48:37.523Z,100938.47
2023-04-26T01:53:40.658Z,100951.56
2023-04-26T01:58:42.970Z,100940.00
2023-04-26T02:03:45.216Z,100944.31
2023-04-26T02:08:48.929Z,100951.13
2023-04-26T02:13:50.620Z,100948.31
2023-04-26T02:18:53.336Z,100948.47
2023-04-26T02:23:57.339Z,100946.81
2023-04-26T02:28:59.866Z,100941.31
2023-04-26T02:34:01.938Z,100945.47
2023-04-26T02:39:05.712Z,100938.44
2023-04-26T02:44:07.709Z,100933.97
2023-04-26T02:49:09.896Z,100943.34
2023-04-26T02:54:13.656Z,100935.66
2023-04-26T02:59:15.831Z,100945.13
2023-04-26T03:04:18.342Z,100939.63
2023-04-26T03:09:21.856Z,100944.94
2023-04-26T03:14:23.947Z,100943.09
2023-04-26T03:19:26.084Z,100940.75
2023-04-26T03:24:29.579Z,100934.78
2023-04-26T03:29:31.560Z,100947.00
2023-04-26T03:34:33.666Z,100948.81
2023-04-26T03:39:37.279Z,100957.56
2023-04-26T03:44:39.774Z,100947.97
2023-04-26T03:49:42.367Z,100951.50
2023-04-26T03:54:46.192Z,100961.94
2023-04-26T03:59:48.900Z,100967.25
2023-04-26T04:04:51.097Z,100964.81
2023-04-26T04:09:54.803Z,100971.59
2023-04-26T04:14:57.089Z,100976.19
2023-04-26T04:19:58.792Z,100969.97
2023-04-26T04:25:02.464Z,100970.22
2023-04-26T04:30:06.380Z,100981.72
2023-04-26T04:35:09.173Z,100986.47
2023-04-26T04:40:13.558Z,100984.81
2023-04-26T04:45:16.391Z,100993.06
2023-04-26T04:50:18.450Z,101005.81
2023-04-26T04:55:21.959Z,100999.78
2023-04-26T05:00:23.944Z,101006.22
2023-04-26T05:05:27.645Z,101013.53
2023-04-26T05:10:31.979Z,101017.47
2023-04-26T05:15:33.654Z,101010.09
2023-04-26T05:20:35.696Z,101018.38
2023-04-26T05:25:39.173Z,101024.06
2023-04-26T05:30:41.518Z,101021.44
2023-04-26T05:35:43.657Z,101027.41
2023-04-26T05:40:46.892Z,101040.69
2023-04-26T05:45:52.350Z,101041.66
2023-04-26T05:50:54.321Z,101047.94
2023-04-26T05:55:57.671Z,101045.13
2023-04-26T06:00:59.781Z,101052.47
2023-04-26T06:06:02.036Z,101048.88
2023-04-26T06:11:05.718Z,101051.56
2023-04-26T06:16:08.045Z,101049.25
2023-04-26T06:21:10.122Z,101052.28
2023-04-26T06:26:13.562Z,101054.97
2023-04-26T06:31:16.144Z,101063.56
2023-04-26T06:36:17.902Z,101059.84
2023-04-26T06:41:21.353Z,101055.63
2023-04-26T06:46:23.633Z,101051.41
2023-04-26T06:51:25.792Z,101056.75
2023-04-26T06:56:29.315Z,101062.16
2023-04-26T07:01:32.924Z,101066.78
2023-04-26T07:06:35.053Z,101065.38
2023-04-26T07:11:38.572Z,101074.28
2023-04-26T07:16:41.171Z,101070.75
2023-04-26T07:21:43.248Z,101071.59
2023-04-26T07:26:46.680Z,101083.13
2023-04-26T07:31:49.389Z,101085.59
2023-04-26T07:36:51.387Z,101077.88
2023-04-26T07:41:55.573Z,101085.09
2023-04-26T07:46:57.930Z,101093.16
2023-04-26T07:51:59.951Z,101086.09
2023-04-26T07:57:03.414Z,101089.63
2023-04-26T08:02:05.558Z,101095.78
2023-04-26T08:07:07.643Z,101103.72
2023-04-26T08:12:11.518Z,101097.56
2023-04-26T08:17:13.652Z,101109.00
2023-04-26T08:22:15.784Z,101103.56
2023-04-26T08:27:19.281Z,101100.03
2023-04-26T08:32:21.657Z,101110.75
2023-04-26T08:37:23.839Z,101116.09
2023-04-26T08:42:28.734Z,101093.09
2023-04-26T08:47:39.999Z,101108.16
2023-04-26T08:52:42.993Z,101093.13
2023-04-26T08:57:48.004Z,101098.28
2023-04-26T09:02:51.494Z,101105.38
2023-04-26T09:07:57.474Z,101105.50
2023-04-26T09:13:00.962Z,101101.97
2023-04-26T09:18:20.061Z,101107.25
2023-04-26T09:23:22.509Z,101110.81
2023-04-26T09:28:25.883Z,101093.59
2023-04-26T09:33:28.153Z,101090.50
2023-04-26T09:38:30.310Z,101106.94
2023-04-26T09:43:38.202Z,101105.44
2023-04-26T09:48:40.271Z,101103.13
2023-04-26T09:53:46.722Z,101105.09
2023-04-26T09:59:00.302Z,101095.25
2023-04-26T10:04:02.693Z,101092.66
2023-04-26T10:09:04.988Z,101093.13
2023-04-26T10:14:08.493Z,101073.59
2023-04-26T10:19:11.039Z,101080.06
2023-04-26T10:24:13.222Z,101090.00
2023-04-26T10:29:16.774Z,101089.03
2023-04-26T10:34:20.511Z,101085.84
2023-04-26T10:39:22.577Z,101079.00
2023-04-26T10:44:42.045Z,101077.38
2023-04-26T10:49:45.439Z,101081.44
2023-04-26T10:54:52.730Z,101094.59
2023-04-26T11:00:19.155Z,101092.91
2023-04-26T11:05:34.558Z,101099.25
2023-04-26T11:10:39.549Z,101101.81
2023-04-26T11:15:42.687Z,101101.06
2023-04-26T11:20:45.148Z,101111.66
2023-04-26T11:25:46.924Z,101110.78
2023-04-26T11:30:50.788Z,101116.09
2023-04-26T11:35:55.471Z,101123.09
2023-04-26T11:40:59.214Z,101104.69
2023-04-26T11:46:03.673Z,101103.13
2023-04-26T11:51:07.639Z,101111.16
2023-04-26T11:56:16.566Z,101113.75
2023-04-26T12:01:24.672Z,101101.44
2023-04-26T12:06:30.205Z,101122.78
2023-04-26T12:11:32.099Z,101126.50
2023-04-26T12:16:37.732Z,101138.91
2023-04-26T12:21:43.474Z,101134.56
2023-04-26T12:26:45.583Z,101135.38
2023-04-26T12:31:48.830Z,101129.06
2023-04-26T12:36:51.452Z,101132.44
2023-04-26T12:41:53.604Z,101138.88
2023-04-26T12:46:57.108Z,101138.00
2023-04-26T12:51:59.229Z,101133.69
2023-04-26T12:57:01.034Z,101132.66
2023-04-26T13:02:04.482Z,101126.47
2023-04-26T13:07:06.661Z,101124.00
2023-04-26T13:12:08.787Z,101110.38
2023-04-26T13:17:12.474Z,101126.13
2023-04-26T13:22:16.192Z,101122.13
2023-04-26T13:27:18.290Z,101127.22
2023-04-26T13:32:21.910Z,101121.84
2023-04-26T13:37:24.370Z,101121.88
2023-04-26T13:42:26.506Z,101130.66
2023-04-26T13:47:29.929Z,101133.19
2023-04-26T13:52:32.071Z,101145.75
2023-04-26T13:57:34.169Z,101146.00
2023-04-26T14:02:38.909Z,101143.28
2023-04-26T14:07:41.541Z,101145.03
2023-04-26T14:12:43.672Z,101152.91
2023-04-26T14:17:47.853Z,101140.72
2023-04-26T14:22:50.006Z,101151.28
2023-04-26T14:27:53.598Z,101149.22
2023-04-26T14:32:57.393Z,101150.38
2023-04-26T14:37:59.768Z,101143.63
2023-04-26T14:43:01.906Z,101147.13
2023-04-26T14:48:06.196Z,101141.09
2023-04-26T14:53:08.328Z,101132.56
2023-04-26T14:58:10.481Z,101139.38
2023-04-26T15:03:14.063Z,101148.66
2023-04-26T15:08:17.354Z,101119.00
2023-04-26T15:13:19.763Z,101147.94
2023-04-26T15:18:23.472Z,101141.91
2023-04-26T15:23:25.954Z,101151.16
2023-04-26T15:28:28.077Z,101144.88
2023-04-26T15:33:31.738Z,101150.59
2023-04-26T15:38:34.672Z,101147.19
2023-04-26T15:43:36.771Z,101143.06
2023-04-26T15:48:41.133Z,101148.31
2023-04-26T15:53:43.781Z,101145.38
2023-04-26T15:58:46.198Z,101146.41
2023-04-26T16:03:49.397Z,101140.16
2023-04-26T16:08:52.436Z,101153.69
2023-04-26T16:13:54.485Z,101152.03
2023-04-26T16:18:57.970Z,101151.13
2023-04-26T16:24:00.424Z,101154.59
2023-04-26T16:29:02.380Z,101148.59
2023-04-26T16:34:05.816Z,101150.31
2023-04-26T16:39:08.392Z,101146.78
2023-04-26T16:44:10.605Z,101150.09
2023-04-26T16:49:14.050Z,101144.56
2023-04-26T16:54:16.161Z,101156.34
2023-04-26T16:59:18.179Z,101158.19
2023-04-26T17:04:21.810Z,101167.19
2023-04-26T17:09:23.988Z,101158.41
2023-04-26T17:14:26.070Z,101163.69
2023-04-26T17:19:29.747Z,101177.84
2023-04-26T17:24:32.183Z,101177.88
2023-04-26T17:29:34.275Z,101176.97
2023-04-26T17:34:37.640Z,101167.28
2023-04-26T17:39:40.030Z,101171.69
2023-04-26T17:44:43.335Z,101174.31
2023-04-26T17:49:47.011Z,101178.69
2023-04-26T17:54:49.151Z,101189.16
2023-04-26T17:59:51.529Z,101189.13
2023-04-26T18:04:55.127Z,101196.06
2023-04-26T18:09:57.464Z,101193.25
2023-04-26T18:15:00.208Z,101194.91
2023-04-26T18:20:03.520Z,101197.41
2023-04-26T18:25:06.320Z,101196.53
2023-04-26T18:30:09.357Z,101209.66
2023-04-26T18:35:13.114Z,101216.56
2023-04-26T18:40:15.405Z,101230.59
2023-04-26T18:45:17.225Z,101224.41
2023-04-26T18:50:20.611Z,101235.91
2023-04-26T18:55:22.576Z,101242.09
2023-04-26T19:00:24.753Z,101231.50
2023-04-26T19:05:28.392Z,101232.44
2023-04-26T19:10:30.699Z,101236.78
2023-04-26T19:15:33.044Z,101242.91
2023-04-26T19:20:36.297Z,101252.59
2023-04-26T19:25:38.880Z,101251.69
2023-04-26T19:30:40.670Z,101251.63
2023-04-26T19:35:44.418Z,101250.78
2023-04-26T19:40:46.728Z,101247.25
2023-04-26T19:45:49.040Z,101253.47
2023-04-26T19:50:52.722Z,101251.66
2023-04-26T19:55:54.608Z,101259.59
2023-04-26T20:00:56.778Z,101259.59
2023-04-26T20:06:00.562Z,101260.41
2023-04-26T20:11:02.825Z,101264.88
2023-04-26T20:16:05.228Z,101260.47
2023-04-26T20:21:08.650Z,101265.03
2023-04-26T20:26:11.133Z,101266.75
2023-04-26T20:31:13.302Z,101274.84
2023-04-26T20:36:17.015Z,101277.41
2023-04-26T20:41:19.247Z,101279.16
2023-04-26T20:46:21.261Z,101277.41
2023-04-26T20:51:24.408Z,101273.75
2023-04-26T20:56:26.411Z,101280.66
2023-04-26T21:01:28.655Z,101278.91
2023-04-26T21:06:32.049Z,101277.97
2023-04-26T21:11:34.186Z,101276.13
2023-04-26T21:16:37.131Z,101278.69
2023-04-26T21:21:40.639Z,101283.91
2023-04-26T21:26:42.547Z,101282.25
2023-04-26T21:31:44.983Z,101283.25
2023-04-26T21:36:48.534Z,101286.78
2023-04-26T21:41:50.887Z,101279.00
2023-04-26T21:46:52.770Z,101298.44
2023-04-26T21:51:56.251Z,101302.03
2023-04-26T21:56:58.156Z,101295.00
2023-04-26T22:02:00.521Z,101290.53
2023-04-26T22:07:03.771Z,101301.97
2023-04-26T22:12:06.185Z,101301.94
2023-04-26T22:17:08.573Z,101301.94
2023-04-26T22:22:12.167Z,101317.00
2023-04-26T22:27:14.159Z,101315.19
2023-04-26T22:32:16.439Z,101319.50
2023-04-26T22:37:21.632Z,101324.00
2023-04-26T22:42:24.204Z,101333.53
2023-04-26T22:47:26.248Z,101342.44
2023-04-26T22:52:31.807Z,101332.56
2023-04-26T22:57:34.100Z,101342.25
2023-04-26T23:02:36.303Z,101340.47
2023-04-26T23:07:39.982Z,101338.59
2023-04-26T23:12:42.087Z,101350.13
2023-04-26T23:17:44.182Z,101345.63
2023-04-26T23:22:47.514Z,101346.44
2023-04-26T23:27:49.417Z,101348.16
2023-04-26T23:32:51.716Z,101341.97
2023-04-26T23:37:55.289Z,101342.16
2023-04-26T23:42:57.646Z,101345.56
2023-04-26T23:47:59.736Z,101347.44
2023-04-26T23:53:03.116Z,101345.72
2023-04-26T23:58:05.213Z,101339.44
